Group: AFO

Releases: 75.025 · Total size: 6,63 TB

First: 2003-06-26 · Last: 2026-08-31

By section: MP3/FLAC 74.048 (5,05 TB), TV/HD 788 (987,38 GB), Movies/HD 140 (582,99 GB), Movies/SD 42 (37,70 GB), TV/SD 7 (5,98 GB)

Release Section Group Size Files Date ↓
Mutul-Fields-(7V126)-WEB-2022-AFO MP3/FLAC AFO 59,51 MB 8 2022-03-10
Shade_Audio-Miracle_Trumph-(MHR464)-WEB-2022-AFO MP3/FLAC AFO 72,59 MB 8 2022-03-10
Iant_and_Flund_ft_Dan_Picknell-Beautiful_Escape-(WATR134)-WEB-2022-AFO MP3/FLAC AFO 22,72 MB 6 2022-03-10
Kroman-Feel_Alive-(ESR560)-WEB-2022-AFO MP3/FLAC AFO 19,00 MB 6 2022-03-10
Mark_Versluis_and_Ana_Roze-Let_Me_Know-(ABRD275)-WEB-2022-AFO MP3/FLAC AFO 22,79 MB 6 2022-03-10
Kudus_and_Estiva-Fluor__Liften-(ENPROG476)-WEB-2022-AFO MP3/FLAC AFO 41,01 MB 8 2022-03-10
Alex_Soun-Fly_Away-(BT346)-WEB-2022-AFO MP3/FLAC AFO 23,57 MB 6 2022-03-10
DJ_Dani-Dont_Forget_Me-(SV050)-WEB-2022-AFO MP3/FLAC AFO 75,34 MB 9 2022-03-10
Ross_Cairns-Kaiden-(EVO122)-SINGLE-WEB-2022-AFO MP3/FLAC AFO 16,62 MB 5 2022-03-10
Marco_Mc_Neil-Guiding_Lights-(SUBMISSION303)-WEB-2022-AFO MP3/FLAC AFO 25,70 MB 6 2022-03-10
DJ_Hold-In_My_Heart-(SUBMISSION304)-WEB-2022-AFO MP3/FLAC AFO 23,30 MB 6 2022-03-10
Sander_Ferrar-Sunlight-(ASR382)-WEB-2022-AFO MP3/FLAC AFO 47,53 MB 8 2022-03-10
Lika_Morgan-Dilemma-(ETC433)-WEB-2022-AFO MP3/FLAC AFO 17,32 MB 6 2022-03-10
Marcprest-Sideralis-(NRG097)-WEB-2022-AFO MP3/FLAC AFO 34,16 MB 6 2022-03-10
OIO-Bed_of_Roses-(ENV051)-WEB-2022-AFO MP3/FLAC AFO 45,56 MB 8 2022-03-10
PvR-Sun_Sparks-(SDR522)-SINGLE-WEB-2022-AFO MP3/FLAC AFO 16,03 MB 5 2022-03-10
Sygma-Grahan_(Sali_Remix)-(BTSR434)-SINGLE-WEB-2022-AFO MP3/FLAC AFO 14,04 MB 5 2022-03-10
Trance_Atlantic-Mnemonics-(YR1747)-SINGLE-WEB-2022-AFO MP3/FLAC AFO 14,78 MB 5 2022-03-10
KINETICA-Over_and_Out_(Artento_Divini_Remix)-(HVR044)-WEB-2022-AFO MP3/FLAC AFO 21,13 MB 6 2022-03-10
VA-Infrasonic_Tech_Selection_Vol_4-(INFRASONICTS004)-WEB-2022-AFO MP3/FLAC AFO 228,44 MB 19 2022-03-10
2passion-Empire_of_the_Mind-(ABL085)-WEB-2022-AFO MP3/FLAC AFO 23,06 MB 6 2022-03-10
Carla_Cimino-Halara-(OOAK178)-WEB-2022-AFO MP3/FLAC AFO 36,02 MB 6 2022-03-10
Brosso_and_Dmitrii_G-Baikal_(Denis_Sender_Remix)-(ITP193)-WEB-2022-AFO MP3/FLAC AFO 18,49 MB 6 2022-03-10
PITTARIUS_CODE-Your_Eyes-(RDXRED204)-WEB-2022-AFO MP3/FLAC AFO 24,20 MB 6 2022-03-10
M-timo-Wisteria-(RDXM196)-WEB-2022-AFO MP3/FLAC AFO 22,93 MB 6 2022-03-10
Jackob_Roenald-Keep_Moving_Forward-(INFRAR047)-WEB-2022-AFO MP3/FLAC AFO 23,32 MB 5 2022-03-10
MikeT-Save_Me-(ESM488)-WEB-2022-AFO MP3/FLAC AFO 21,82 MB 6 2022-03-10
DJ_Phalanx_and_Myk_Bee-Shine_(Divaiz_Remix)-(SCR459)-WEB-2022-AFO MP3/FLAC AFO 23,13 MB 6 2022-03-10
Calvin_OCommor-Steel_(Extended_Mix)-(MER003)-SINGLE-WEB-2022-AFO MP3/FLAC AFO 17,11 MB 5 2022-03-10
Dan_R-United_Harmony-(TMM189)-WEB-2022-AFO MP3/FLAC AFO 65,37 MB 10 2022-03-10
Andrew_Senior-Voices-(PLRP0034)-WEB-2022-AFO MP3/FLAC AFO 76,39 MB 10 2022-03-10
KayZen-Reflections-(SST006)-WEB-2022-AFO MP3/FLAC AFO 19,76 MB 6 2022-03-10
Anton_By-Hereafter-(NS1068)-WEB-2022-AFO MP3/FLAC AFO 20,03 MB 6 2022-03-10
Precious_Affliction-Remember_To_U-(TMU044)-WEB-2022-AFO MP3/FLAC AFO 25,54 MB 6 2022-03-10
Tom_Liar-Back_And_Forth_EP-(SVR030)-WEB-2022-AFO MP3/FLAC AFO 52,35 MB 10 2022-03-10
Roald_Velden_and_EcueD-Moments_(Remixed)-(PDR053)-WEB-2022-AFO MP3/FLAC AFO 50,49 MB 7 2022-03-10
Minicied-Interchange-(PHW445)-WEB-2022-AFO MP3/FLAC AFO 28,38 MB 6 2022-03-10
Passenger_10-Landing_in_Halifax-(ETR628)-WEB-2022-AFO MP3/FLAC AFO 25,65 MB 5 2022-03-10
Jean_Clemence-Fullness-(EA110)-SINGLE-WEB-2022-AFO MP3/FLAC AFO 8,97 MB 4 2022-03-10
Peter_Illias-Abyss____Run_and_Hide-(ESS107)-WEB-2022-AFO MP3/FLAC AFO 52,65 MB 8 2022-03-10
Sam_Fletcher-A_Little_More_Time-(HIGH002)-WEB-2022-AFO MP3/FLAC AFO 36,00 MB 7 2022-03-10
Jue-Let_It_All_Be_Forgiven-(ATT010)-SINGLE-WEB-2022-AFO MP3/FLAC AFO 19,04 MB 5 2022-03-10
U-Mount-Reverse_Polarity-(NV027)-WEB-2022-AFO MP3/FLAC AFO 24,11 MB 5 2022-03-10
Db_Mokk-Millennium-(EGMSIN340)-WEB-2022-AFO MP3/FLAC AFO 22,98 MB 6 2022-03-10
Raiwa-Daddys_Money_EP-(PR2022625)-WEB-2022-AFO MP3/FLAC AFO 47,62 MB 7 2022-03-10
Jon_Sine_ft_Robin_Vane-Lost_and_Alone-(VD001)-WEB-2022-AFO MP3/FLAC AFO 25,08 MB 6 2022-03-10
Neal_Porter-Focused_On_Neal_Porter-(ENCHANT054)-WEB-2022-AFO MP3/FLAC AFO 59,29 MB 7 2022-03-10
Thonal-Come_Fly_With_Me-(EDR259)-WEB-2022-AFO MP3/FLAC AFO 82,41 MB 9 2022-03-10
Paul_Mibely-Tribely-(SDM107)-WEB-2022-AFO MP3/FLAC AFO 42,53 MB 7 2022-03-10
Nico_Beren-Sagarmatha__Lhotse-(ALM125)-WEB-2022-AFO MP3/FLAC AFO 93,83 MB 9 2022-03-10